Time;durP1;ratioP1;P1;durP2;ratioP2;P2;SDS_P1;SDS_P2;PMS_P1;PMS_P2;Temp;Humidity;BMP_temperature;BMP_pressure;BME280_temperature;BME280_humidity;BME280_pressure;Samples;Min_cycle;Max_cycle;Signal;HPM_P1;HPM_P2
2024/01/17 00:01:55;;;;;;;35.15;33.35;;;;;;;2.92;64.11;100114.09;5023993;28;20042;-75
2024/01/17 00:04:20;;;;;;;32.05;30.40;;;;;;;2.92;63.89;100114.09;5019059;28;20042;-75
2024/01/17 00:06:46;;;;;;;34.70;32.97;;;;;;;2.93;63.88;100097.09;5022680;28;20060;-76
2024/01/17 00:09:12;;;;;;;32.13;30.58;;;;;;;2.92;64.10;100093.56;5023874;28;20044;-75
2024/01/17 00:11:37;;;;;;;31.65;30.02;;;;;;;2.91;64.14;100086.63;5026302;28;20222;-74
2024/01/17 00:14:03;;;;;;;30.10;28.40;;;;;;;2.92;64.18;100085.56;5039022;28;20496;-75
2024/01/17 00:16:28;;;;;;;31.88;30.17;;;;;;;2.92;64.16;100084.75;5019001;28;20034;-78
2024/01/17 00:18:56;;;;;;;33.13;31.38;;;;;;;2.91;64.10;100078.63;5045829;28;20103;-76
2024/01/17 00:21:22;;;;;;;31.15;29.52;;;;;;;2.90;64.03;100069.00;5020417;28;20108;-75
2024/01/17 00:23:47;;;;;;;30.10;28.60;;;;;;;2.90;64.07;100057.47;5022005;28;20109;-75
2024/01/17 00:26:13;;;;;;;32.55;30.85;;;;;;;2.90;64.12;100062.81;5030251;28;20025;-76
2024/01/17 00:28:38;;;;;;;37.22;35.22;;;;;;;2.90;64.06;100058.31;5045198;28;20548;-74
2024/01/17 00:31:04;;;;;;;33.90;32.20;;;;;;;2.91;63.81;100062.59;5030942;28;20059;-75
2024/01/17 00:33:29;;;;;;;33.67;31.58;;;;;;;2.91;63.63;100053.78;5006996;28;20362;-75
2024/01/17 00:35:54;;;;;;;32.67;31.05;;;;;;;2.91;64.00;100053.78;5029427;28;20042;-75
2024/01/17 00:38:20;;;;;;;29.63;28.13;;;;;;;2.90;63.93;100038.81;5045482;28;20045;-76
2024/01/17 00:40:45;;;;;;;30.35;28.85;;;;;;;2.90;63.76;100036.13;5016603;28;20041;-75
2024/01/17 00:43:11;;;;;;;33.33;31.52;;;;;;;2.89;64.05;100040.66;5029038;28;20652;-75
2024/01/17 00:45:37;;;;;;;29.88;28.25;;;;;;;2.89;64.09;100037.16;5032437;28;20084;-75
2024/01/17 00:48:03;;;;;;;32.22;30.63;;;;;;;2.88;64.24;100031.03;5030171;28;20045;-76
2024/01/17 00:50:30;;;;;;;35.42;33.53;;;;;;;2.88;63.90;100031.03;5020113;28;20061;-74
2024/01/17 00:52:55;;;;;;;35.08;33.38;;;;;;;2.88;63.69;100024.88;5030916;28;20486;-75
2024/01/17 00:55:21;;;;;;;30.02;28.42;;;;;;;2.86;63.99;100017.06;5023915;28;20111;-73
2024/01/17 00:57:46;;;;;;;32.60;31.00;;;;;;;2.87;63.98;100007.22;5039906;28;20051;-76
2024/01/17 01:00:12;;;;;;;34.15;32.45;;;;;;;2.86;63.91;100006.41;5036151;28;20104;-77
2024/01/17 01:02:38;;;;;;;31.00;29.27;;;;;;;2.87;63.83;100004.53;5012069;28;20132;-74
2024/01/17 01:05:03;;;;;;;32.83;31.20;;;;;;;2.85;64.03;99998.59;5023322;28;20058;-75
2024/01/17 01:07:29;;;;;;;34.00;32.25;;;;;;;2.85;63.75;100001.25;5026470;28;20038;-74
2024/01/17 01:09:55;;;;;;;30.83;29.30;;;;;;;2.86;63.90;99993.06;5017743;28;20025;-74
2024/01/17 01:12:20;;;;;;;32.33;30.70;;;;;;;2.84;63.74;99987.13;5019311;28;20021;-77
2024/01/17 01:14:46;;;;;;;30.45;28.92;;;;;;;2.84;63.82;99983.63;5033114;28;20377;-76
2024/01/17 01:17:11;;;;;;;32.63;31.02;;;;;;;2.84;63.88;99983.63;5022929;28;20433;-76
2024/01/17 01:19:36;;;;;;;34.58;32.75;;;;;;;2.84;63.95;99978.31;5023802;28;20036;-74
2024/01/17 01:22:02;;;;;;;32.83;31.23;;;;;;;2.81;63.95;99972.34;5022203;28;20038;-75
2024/01/17 01:24:27;;;;;;;31.65;30.08;;;;;;;2.82;63.85;99967.84;5026700;28;20066;-78
2024/01/17 01:26:53;;;;;;;30.25;28.75;;;;;;;2.83;63.85;99968.69;5036341;28;20403;-74
2024/01/17 01:29:18;;;;;;;31.77;30.17;;;;;;;2.81;63.90;99964.34;5029144;28;20389;-75
2024/01/17 01:31:43;;;;;;;35.90;33.90;;;;;;;2.81;63.98;99960.88;5045863;28;20038;-74
2024/01/17 01:34:09;;;;;;;33.17;31.48;;;;;;;2.81;63.55;99958.22;5037165;28;20405;-75
2024/01/17 01:36:34;;;;;;;34.10;32.28;;;;;;;2.80;63.60;99952.06;5014634;28;20117;-75
2024/01/17 01:38:59;;;;;;;31.40;29.90;;;;;;;2.80;63.96;99949.38;5005625;28;20398;-75
2024/01/17 01:41:25;;;;;;;33.10;31.48;;;;;;;2.80;63.95;99949.38;5033349;28;20062;-75
2024/01/17 01:43:51;;;;;;;30.83;29.25;;;;;;;2.80;63.98;99951.25;5044652;28;20043;-74
2024/01/17 01:46:26;;;;;;;32.80;31.20;;;;;;;2.79;63.79;99955.75;5024414;28;20045;-74
2024/01/17 01:48:52;;;;;;;31.77;30.13;;;;;;;2.79;63.53;99960.25;5026025;28;20045;-73
2024/01/17 01:51:19;;;;;;;32.28;30.67;;;;;;;2.77;63.66;99947.16;5036600;28;20030;-74
2024/01/17 01:53:48;;;;;;;32.72;30.92;;;;;;;2.77;63.84;99947.16;5034716;28;20036;-78
2024/01/17 01:56:17;;;;;;;29.77;28.02;;;;;;;2.77;63.84;99952.50;5029065;28;20030;-73
2024/01/17 01:58:46;;;;;;;31.15;29.35;;;;;;;2.77;63.75;99940.97;5031075;28;20029;-76
2024/01/17 02:01:14;;;;;;;;;;;;;;;2.76;63.65;99948.16;5022147;28;20034;-74
2024/01/17 02:03:43;;;;;;;29.98;28.30;;;;;;;2.75;63.68;99943.06;5026524;28;19913;-78
2024/01/17 02:06:09;;;;;;;30.90;29.38;;;;;;;2.74;63.63;99944.88;5032838;28;20381;-76
2024/01/17 02:08:35;;;;;;;30.20;28.60;;;;;;;2.75;63.75;99937.72;5027181;28;20042;-73
2024/01/17 02:11:01;;;;;;;30.58;29.08;;;;;;;2.75;63.85;99937.72;5044833;28;20129;-74
2024/01/17 02:13:27;;;;;;;29.40;27.95;;;;;;;2.73;63.43;99929.94;5037406;28;20116;-75
2024/01/17 02:15:52;;;;;;;33.40;31.70;;;;;;;2.74;63.83;99923.56;5040578;28;20620;-75
2024/01/17 02:18:18;;;;;;;35.10;33.35;;;;;;;2.75;63.70;99916.41;5023701;28;20037;-73
2024/01/17 02:20:44;;;;;;;33.00;31.20;;;;;;;2.74;63.62;99912.88;5019214;28;20496;-76
2024/01/17 02:23:26;;;;;;;31.48;29.88;;;;;;;2.75;63.53;99909.19;5019405;28;20042;-75
2024/01/17 02:25:53;;;;;;;29.50;27.80;;;;;;;2.73;63.45;99903.25;5031657;28;20555;-75
2024/01/17 02:28:19;;;;;;;32.08;30.48;;;;;;;2.74;63.77;99904.06;5038200;28;20485;-74
2024/01/17 02:30:45;;;;;;;31.92;30.23;;;;;;;2.74;63.69;99896.88;5023989;28;20030;-75
2024/01/17 02:33:12;;;;;;;29.40;27.90;;;;;;;2.74;63.67;99896.06;5030301;28;20045;-74
2024/01/17 02:35:38;;;;;;;34.60;32.75;;;;;;;2.74;63.50;99891.56;5044750;28;20028;-74
2024/01/17 02:38:03;;;;;;;31.42;29.85;;;;;;;2.74;63.44;99882.75;5029999;28;20124;-75
2024/01/17 02:40:28;;;;;;;32.22;30.63;;;;;;;2.75;63.50;99873.72;5030995;28;20025;-74
2024/01/17 02:42:54;;;;;;;32.22;30.52;;;;;;;2.74;63.43;99872.88;5028169;28;20927;-75
2024/01/17 02:45:21;;;;;;;31.05;29.48;;;;;;;2.74;63.30;99870.22;5024271;28;20045;-73
2024/01/17 02:47:46;;;;;;;35.30;33.40;;;;;;;2.74;63.55;99872.06;5027653;28;20529;-74
2024/01/17 02:50:14;;;;;;;30.67;29.17;;;;;;;2.73;63.73;99868.59;5034566;28;20045;-74
2024/01/17 02:52:41;;;;;;;32.10;30.48;;;;;;;2.73;63.85;99857.13;5018761;28;20029;-76
2024/01/17 02:55:08;;;;;;;33.63;31.85;;;;;;;2.74;63.34;99853.41;5027760;28;20038;-74
2024/01/17 02:57:33;;;;;;;29.90;28.40;;;;;;;2.73;63.32;99851.78;5033864;28;20441;-78
2024/01/17 02:59:59;;;;;;;33.30;31.70;;;;;;;2.73;63.29;99849.94;5023431;28;20070;-74
2024/01/17 03:02:24;;;;;;;33.58;31.88;;;;;;;2.72;63.64;99840.31;5039091;28;20103;-76
2024/01/17 03:04:50;;;;;;;33.65;31.85;;;;;;;2.73;63.44;99833.94;5036054;28;20489;-74
2024/01/17 03:07:15;;;;;;;28.83;27.35;;;;;;;2.73;63.39;99835.78;5032679;28;20042;-74
2024/01/17 03:09:41;;;;;;;28.27;26.83;;;;;;;2.72;63.39;99831.47;5030396;28;20041;-76
2024/01/17 03:12:06;;;;;;;32.47;30.88;;;;;;;2.71;63.59;99835.97;5040842;28;20029;-73
2024/01/17 03:14:32;;;;;;;31.48;29.88;;;;;;;2.71;63.29;99835.97;5028314;28;20084;-73
2024/01/17 03:16:58;;;;;;;31.95;30.15;;;;;;;2.70;63.55;99829.03;5013147;28;20073;-73
2024/01/17 03:19:24;;;;;;;32.75;31.15;;;;;;;2.70;63.45;99823.69;5029300;28;20034;-73
2024/01/17 03:21:50;;;;;;;30.70;28.95;;;;;;;2.70;63.45;99814.88;5029617;28;20474;-73
2024/01/17 03:24:16;;;;;;;31.45;29.85;;;;;;;2.69;63.47;99816.69;5024159;28;20033;-76
2024/01/17 03:26:41;;;;;;;29.80;28.20;;;;;;;2.69;63.41;99808.72;5024119;28;20474;-81
2024/01/17 03:29:07;;;;;;;31.08;29.55;;;;;;;2.69;63.25;99800.72;5037697;28;20287;-74
2024/01/17 03:31:32;;;;;;;32.20;30.58;;;;;;;2.69;63.60;99806.03;5035387;28;20029;-73
2024/01/17 03:33:58;;;;;;;31.67;29.98;;;;;;;2.68;63.51;99801.75;5020264;28;20121;-74
2024/01/17 03:36:23;;;;;;;30.88;29.27;;;;;;;2.70;63.26;99790.88;5040950;28;20040;-73
2024/01/17 03:38:49;;;;;;;32.72;30.92;;;;;;;2.68;63.42;99776.94;5037622;28;20421;-73
2024/01/17 03:41:14;;;;;;;29.70;28.23;;;;;;;2.68;63.54;99764.41;5031108;28;20065;-73
2024/01/17 03:43:39;;;;;;;31.27;29.75;;;;;;;2.67;63.43;99752.13;5030022;28;20382;-75
2024/01/17 03:46:05;;;;;;;29.20;27.70;;;;;;;2.67;63.60;99746.81;5029375;28;20466;-74
2024/01/17 03:48:30;;;;;;;32.13;30.52;;;;;;;2.66;63.46;99742.47;5036949;28;20086;-73
2024/01/17 03:50:56;;;;;;;33.17;31.38;;;;;;;2.67;63.23;99737.97;5022953;28;20065;-74
2024/01/17 03:53:21;;;;;;;29.85;28.35;;;;;;;2.67;63.43;99722.81;5022112;28;20096;-73
2024/01/17 03:55:46;;;;;;;28.75;27.25;;;;;;;2.67;63.51;99730.81;5044024;28;20037;-73
2024/01/17 03:58:12;;;;;;;32.03;30.40;;;;;;;2.66;63.41;99712.34;5025024;28;20025;-73
2024/01/17 04:00:37;;;;;;;30.48;28.98;;;;;;;2.65;63.44;99700.88;5042961;28;20470;-73
2024/01/17 04:03:03;;;;;;;33.20;31.40;;;;;;;2.65;63.50;99697.38;5030285;28;20128;-73
2024/01/17 04:05:28;;;;;;;33.63;31.92;;;;;;;2.64;63.35;99693.06;5033488;28;20029;-73
2024/01/17 04:07:54;;;;;;;34.05;32.20;;;;;;;2.64;63.61;99690.41;5020386;28;20552;-74
2024/01/17 04:10:19;;;;;;;30.50;29.00;;;;;;;2.64;63.29;99683.22;5017264;28;20084;-72
2024/01/17 04:12:45;;;;;;;30.80;29.23;;;;;;;2.63;63.41;99673.59;5033352;28;20122;-74
2024/01/17 04:15:10;;;;;;;30.20;28.65;;;;;;;2.64;63.26;99669.06;5042214;28;20401;-73
2024/01/17 04:17:36;;;;;;;30.73;29.15;;;;;;;2.62;63.18;99669.31;5025869;28;20051;-73
2024/01/17 04:20:02;;;;;;;33.63;31.75;;;;;;;2.62;63.42;99661.31;5033437;28;20092;-73
2024/01/17 04:22:28;;;;;;;32.53;30.85;;;;;;;2.62;63.50;99655.13;5036826;28;20041;-74
2024/01/17 04:24:54;;;;;;;34.90;33.05;;;;;;;2.62;63.37;99647.16;5033340;28;20425;-77
2024/01/17 04:27:19;;;;;;;31.75;30.17;;;;;;;2.62;63.06;99636.47;5016959;28;20022;-73
2024/01/17 04:29:45;;;;;;;27.20;25.80;;;;;;;2.61;63.16;99627.66;5022569;28;20401;-74
2024/01/17 04:32:11;;;;;;;30.80;29.30;;;;;;;2.60;63.13;99626.06;5038924;28;20053;-76
2024/01/17 04:34:38;;;;;;;31.58;29.98;;;;;;;2.60;63.15;99621.53;5037263;28;20438;-73
2024/01/17 04:37:03;;;;;;;34.58;32.67;;;;;;;2.60;63.17;99621.53;5041996;28;20401;-73
2024/01/17 04:39:28;;;;;;;32.85;31.20;;;;;;;2.59;63.23;99617.22;5032624;28;20030;-73
2024/01/17 04:41:54;;;;;;;34.33;32.50;;;;;;;2.59;63.14;99619.88;5002341;28;20052;-74
2024/01/17 04:44:19;;;;;;;33.83;32.13;;;;;;;2.60;63.03;99618.06;5033236;28;20029;-75
2024/01/17 04:46:46;;;;;;;31.73;30.23;;;;;;;2.58;63.19;99622.78;5032401;28;20054;-74
2024/01/17 04:49:12;;;;;;;32.67;31.08;;;;;;;2.57;63.18;99599.81;5023750;28;20029;-73
2024/01/17 04:51:37;;;;;;;32.20;30.60;;;;;;;2.58;63.08;99596.94;5014716;28;20057;-73
2024/01/17 04:54:03;;;;;;;34.75;32.85;;;;;;;2.57;63.28;99581.97;5033715;28;20045;-73
2024/01/17 04:56:28;;;;;;;32.10;30.50;;;;;;;2.57;63.21;99584.66;5014914;28;20096;-73
2024/01/17 04:58:54;;;;;;;30.20;28.67;;;;;;;2.56;63.02;99580.34;5038745;28;20037;-76
2024/01/17 05:01:19;;;;;;;31.65;30.08;;;;;;;2.57;63.17;99575.81;5013665;28;20048;-74
2024/01/17 05:03:45;;;;;;;32.95;31.25;;;;;;;2.55;63.23;99568.06;5038495;28;20037;-75
2024/01/17 05:06:10;;;;;;;29.42;27.83;;;;;;;2.55;63.12;99569.91;5023326;28;20029;-72
2024/01/17 05:08:36;;;;;;;31.73;30.23;;;;;;;2.55;63.40;99552.06;5032935;28;20060;-73
2024/01/17 05:11:01;;;;;;;29.88;28.17;;;;;;;2.54;62.76;99554.94;5040824;28;20543;-73
2024/01/17 05:13:27;;;;;;;30.67;29.10;;;;;;;2.55;63.17;99556.59;5029377;28;20095;-74
2024/01/17 05:15:52;;;;;;;30.30;28.83;;;;;;;2.54;62.92;99554.94;5029782;28;20038;-73
2024/01/17 05:18:18;;;;;;;31.67;30.08;;;;;;;2.54;63.22;99552.25;5017009;28;20111;-72
2024/01/17 05:20:43;;;;;;;32.53;30.92;;;;;;;2.53;62.92;99534.66;5024546;28;20485;-72
2024/01/17 05:23:09;;;;;;;30.20;28.60;;;;;;;2.53;63.12;99534.66;5036875;28;20040;-73
2024/01/17 05:25:34;;;;;;;33.55;31.85;;;;;;;2.53;63.20;99529.31;5039127;28;20560;-73
2024/01/17 05:27:59;;;;;;;32.25;30.52;;;;;;;2.51;63.10;99532.19;5033192;28;20079;-73
2024/01/17 05:30:25;;;;;;;25.55;24.25;;;;;;;2.51;63.14;99518.06;5024735;28;20045;-74
2024/01/17 05:32:55;;;;;;;32.33;30.73;;;;;;;2.51;63.13;99518.06;5036372;28;20029;-72
2024/01/17 05:35:23;;;;;;;32.75;31.13;;;;;;;2.50;63.00;99506.59;5032521;28;20053;-73
2024/01/17 05:37:49;;;;;;;33.03;31.33;;;;;;;2.50;63.18;99509.25;5034346;28;20072;-72
2024/01/17 05:40:14;;;;;;;33.97;32.13;;;;;;;2.51;63.00;99505.53;5023086;28;20041;-75
2024/01/17 05:42:44;;;;;;;30.80;29.23;;;;;;;2.49;63.24;99510.28;5016226;28;20029;-73
2024/01/17 05:45:10;;;;;;;35.22;32.90;;;;;;;2.49;62.92;99504.13;5028877;28;20115;-74
2024/01/17 05:47:36;;;;;;;29.77;28.27;;;;;;;2.49;63.18;99504.13;5010521;28;20425;-74
2024/01/17 05:50:11;;;;;;;32.70;31.05;;;;;;;2.49;63.03;99502.28;5027906;28;20109;-73
2024/01/17 05:52:45;;;;;;;35.17;33.47;;;;;;;2.49;63.18;99501.47;5024581;28;20049;-74
2024/01/17 05:55:12;;;;;;;34.20;32.30;;;;;;;2.48;62.73;99487.31;5031440;28;20037;-74
2024/01/17 05:57:38;;;;;;;32.03;30.42;;;;;;;2.47;63.20;99485.72;5023364;28;20025;-72
2024/01/17 06:00:07;;;;;;;31.60;29.92;;;;;;;2.48;62.93;99484.66;5029977;28;20536;-73
2024/01/17 06:02:33;;;;;;;32.33;30.67;;;;;;;2.48;62.91;99484.66;5041953;28;20041;-72
2024/01/17 06:04:58;;;;;;;31.33;29.70;;;;;;;2.47;63.13;99480.38;5041839;28;20494;-78
2024/01/17 06:07:24;;;;;;;31.13;29.58;;;;;;;2.48;62.92;99475.84;5032617;28;20466;-74
2024/01/17 06:09:49;;;;;;;31.30;29.70;;;;;;;2.46;62.98;99475.25;5035861;28;20029;-72
2024/01/17 06:12:15;;;;;;;31.42;29.70;;;;;;;2.48;62.81;99478.53;5032245;28;20029;-74
2024/01/17 06:14:40;;;;;;;29.83;28.33;;;;;;;2.45;63.19;99474.44;5031974;28;20038;-73
2024/01/17 06:17:06;;;;;;;32.05;30.40;;;;;;;2.45;62.88;99466.44;5037339;28;20079;-73
2024/01/17 06:19:32;;;;;;;30.48;28.92;;;;;;;2.45;62.97;99474.44;5064888;28;20505;-74
2024/01/17 06:21:57;;;;;;;31.25;29.52;;;;;;;2.44;62.97;99462.13;5013424;28;20097;-75
2024/01/17 06:24:23;;;;;;;31.90;30.30;;;;;;;2.44;63.20;99448.81;5036892;28;20072;-73
2024/01/17 06:26:48;;;;;;;32.90;31.23;;;;;;;2.44;63.13;99448.00;5026693;28;20041;-73
2024/01/17 06:29:14;;;;;;;33.70;31.85;;;;;;;2.44;62.88;99437.34;5029852;28;20066;-74
2024/01/17 06:31:39;;;;;;;37.70;34.78;;;;;;;2.43;62.74;99441.06;5042389;28;20038;-73
2024/01/17 06:34:05;;;;;;;31.52;29.90;;;;;;;2.42;62.97;99437.59;5048989;28;20029;-76
2024/01/17 06:36:32;;;;;;;30.80;29.25;;;;;;;2.42;62.96;99426.09;5033421;28;20501;-75
2024/01/17 06:38:58;;;;;;;36.08;34.28;;;;;;;2.43;62.82;99425.06;5016467;28;20038;-72
2024/01/17 06:41:23;;;;;;;33.00;31.30;;;;;;;2.43;62.81;99427.72;5036493;28;20037;-72
2024/01/17 06:43:48;;;;;;;29.60;28.10;;;;;;;2.42;62.91;99415.44;5018488;28;20481;-71
2024/01/17 06:46:14;;;;;;;31.90;30.17;;;;;;;2.42;62.84;99424.25;5012479;28;20054;-74
2024/01/17 06:48:40;;;;;;;33.92;32.22;;;;;;;2.41;63.08;99416.47;5026116;28;20104;-74
2024/01/17 06:51:06;;;;;;;32.80;31.00;;;;;;;2.41;63.10;99417.28;5027249;28;20113;-77
2024/01/17 06:53:31;;;;;;;31.02;29.42;;;;;;;2.40;63.20;99410.34;5016501;28;20029;-73
2024/01/17 06:55:57;;;;;;;31.38;29.77;;;;;;;2.40;62.77;99391.69;5022880;28;20032;-73
2024/01/17 06:58:23;;;;;;;36.75;34.55;;;;;;;2.40;62.77;99393.53;5021834;28;20029;-72
2024/01/17 07:00:48;;;;;;;31.38;29.83;;;;;;;2.39;62.85;99384.72;5046171;28;20549;-73
2024/01/17 07:03:13;;;;;;;30.05;28.35;;;;;;;2.40;62.87;99385.53;5026622;28;20040;-74
2024/01/17 07:05:41;;;;;;;31.70;30.08;;;;;;;2.39;63.02;99387.38;5014427;28;20494;-71
2024/01/17 07:08:07;;;;;;;32.33;30.77;;;;;;;2.38;63.14;99380.44;5028784;28;20029;-77
2024/01/17 07:10:34;;;;;;;31.20;29.50;;;;;;;2.38;62.86;99381.22;5030617;28;20033;-75
2024/01/17 07:12:59;;;;;;;30.58;28.98;;;;;;;2.38;63.02;99375.91;5008103;28;20477;-75
2024/01/17 07:15:25;;;;;;;32.88;31.08;;;;;;;2.39;63.08;99376.72;5028756;28;20044;-76
2024/01/17 07:17:51;;;;;;;34.15;32.45;;;;;;;2.37;62.99;99368.16;5028155;28;20052;-73
2024/01/17 07:20:16;;;;;;;34.33;32.53;;;;;;;2.37;62.81;99362.81;5026510;28;20036;-74
2024/01/17 07:22:42;;;;;;;33.53;31.65;;;;;;;2.35;62.99;99349.72;5034755;28;20091;-72
2024/01/17 07:25:12;;;;;;;35.53;33.63;;;;;;;2.35;63.00;99355.03;5009887;28;20041;-76
2024/01/17 07:27:43;;;;;;;30.02;28.45;;;;;;;2.35;63.06;99340.91;5031818;28;20033;-72
2024/01/17 07:30:13;;;;;;;31.63;29.92;;;;;;;2.34;62.95;99339.25;5027130;28;20026;-72
2024/01/17 07:32:39;;;;;;;34.13;32.17;;;;;;;2.34;63.23;99340.09;5028098;28;20478;-75
2024/01/17 07:35:05;;;;;;;31.95;30.35;;;;;;;2.33;62.74;99333.13;5025708;28;20060;-73
2024/01/17 07:37:31;;;;;;;32.60;30.80;;;;;;;2.35;62.92;99332.91;5032605;28;20087;-80
2024/01/17 07:39:57;;;;;;;41.20;38.17;;;;;;;2.34;62.99;99323.28;5024171;28;20033;-76
2024/01/17 07:42:22;;;;;;;31.70;29.83;;;;;;;2.34;62.91;99328.59;5025756;28;20088;-71
2024/01/17 07:44:48;;;;;;;32.22;30.45;;;;;;;2.33;62.65;99309.16;5024752;28;20065;-71
2024/01/17 07:47:14;;;;;;;31.15;29.45;;;;;;;2.32;62.61;99310.19;5024106;28;20583;-72
2024/01/17 07:49:39;;;;;;;35.33;33.40;;;;;;;2.31;62.39;99299.75;5026280;28;20150;-78
2024/01/17 07:52:05;;;;;;;31.55;29.75;;;;;;;2.31;62.85;99303.22;5023714;28;20042;-77
2024/01/17 07:54:32;;;;;;;31.17;29.48;;;;;;;2.31;62.73;99300.56;5023423;28;22106;-75
2024/01/17 07:56:58;;;;;;;29.75;28.25;;;;;;;2.31;62.69;99295.22;5025830;28;20105;-74
2024/01/17 07:59:24;;;;;;;31.70;29.83;;;;;;;2.31;62.85;99294.41;5023107;28;20418;-73
2024/01/17 08:01:50;;;;;;;30.38;28.80;;;;;;;2.32;62.83;99293.41;5027458;28;20492;-72
2024/01/17 08:04:16;;;;;;;32.03;30.25;;;;;;;2.31;62.59;99278.44;5022151;28;20088;-72
2024/01/17 08:06:43;;;;;;;31.25;29.60;;;;;;;2.32;62.84;99272.09;5027486;28;20496;-72
2024/01/17 08:09:20;;;;;;;31.35;29.77;;;;;;;2.31;62.57;99271.25;5027061;28;20548;-78
2024/01/17 08:11:57;;;;;;;30.85;29.20;;;;;;;2.31;62.47;99270.44;5026863;28;20041;-72
2024/01/17 08:14:23;;;;;;;29.90;28.20;;;;;;;2.30;62.72;99274.97;5023281;28;20037;-74
2024/01/17 08:16:50;;;;;;;28.48;26.90;;;;;;;2.30;62.77;99269.63;5025601;28;20103;-71
2024/01/17 08:19:17;;;;;;;33.25;31.33;;;;;;;2.30;62.94;99266.16;5029210;28;20052;-73
2024/01/17 08:21:46;;;;;;;33.88;32.05;;;;;;;2.30;62.63;99261.63;5028460;28;20084;-78
2024/01/17 08:24:12;;;;;;;;;;;;;;;2.30;62.78;99258.16;5026796;28;20127;-76
2024/01/17 08:26:41;;;;;;;29.55;27.85;;;;;;;2.29;62.48;99259.19;5029419;28;20440;-76
2024/01/17 08:29:06;;;;;;;30.55;28.88;;;;;;;2.27;62.87;99250.59;5024201;28;20486;-72
2024/01/17 08:31:32;;;;;;;27.95;26.33;;;;;;;2.27;62.57;99248.78;5027970;28;20030;-74
2024/01/17 08:33:58;;;;;;;30.42;28.92;;;;;;;2.28;62.56;99249.56;5025470;28;20512;-71
2024/01/17 08:36:28;;;;;;;30.85;28.90;;;;;;;2.27;62.76;99243.44;5027898;28;20038;-72
2024/01/17 08:38:53;;;;;;;32.33;30.45;;;;;;;2.28;62.57;99236.25;5026107;28;20041;-77
2024/01/17 08:41:19;;;;;;;34.40;32.50;;;;;;;2.28;63.05;99233.59;5024793;28;20037;-73
2024/01/17 08:43:45;;;;;;;31.83;30.15;;;;;;;2.28;62.89;99221.06;5040043;28;20385;-74
2024/01/17 08:46:11;;;;;;;34.08;32.13;;;;;;;2.28;62.42;99223.75;5025878;28;20057;-77
2024/01/17 08:48:38;;;;;;;29.33;27.83;;;;;;;2.29;62.96;99216.56;5022892;28;20328;-71
2024/01/17 08:51:05;;;;;;;29.90;28.20;;;;;;;2.28;63.04;99209.59;5025552;28;20355;-72
2024/01/17 08:53:31;;;;;;;31.80;29.90;;;;;;;2.28;62.70;99199.75;5023865;28;20386;-75
2024/01/17 08:55:58;;;;;;;31.73;29.98;;;;;;;2.27;62.71;99195.47;5026187;28;20424;-76
2024/01/17 08:58:24;;;;;;;32.60;30.70;;;;;;;2.27;62.98;99195.47;5025495;28;20029;-72
2024/01/17 09:00:49;;;;;;;31.60;29.77;;;;;;;2.28;62.82;99193.63;5029409;28;20026;-71
2024/01/17 09:03:15;;;;;;;31.45;29.55;;;;;;;2.28;62.78;99188.28;5026977;28;20482;-75
2024/01/17 09:05:40;;;;;;;31.67;30.05;;;;;;;2.27;62.82;99174.16;5012792;28;20116;-73
2024/01/17 09:08:05;;;;;;;35.03;33.13;;;;;;;2.27;62.73;99174.16;5028308;28;20041;-74
2024/01/17 09:10:31;;;;;;;31.63;29.42;;;;;;;2.27;62.79;99171.50;5011917;28;20030;-74
2024/01/17 09:12:56;;;;;;;32.05;30.33;;;;;;;2.27;62.88;99176.84;5027356;28;20116;-73
2024/01/17 09:15:22;;;;;;;33.08;31.27;;;;;;;2.28;62.99;99178.44;5027972;28;20037;-73
2024/01/17 09:17:47;;;;;;;31.63;30.02;;;;;;;2.29;62.77;99168.59;5025024;28;20542;-73
2024/01/17 09:20:14;;;;;;;35.15;32.88;;;;;;;2.29;62.91;99168.59;5008365;28;20474;-72
2024/01/17 09:22:41;;;;;;;33.67;31.65;;;;;;;2.28;62.69;99165.13;5015846;28;20063;-74
2024/01/17 09:25:08;;;;;;;33.10;31.40;;;;;;;2.28;62.87;99157.13;5029246;28;20045;-72
2024/01/17 09:27:33;;;;;;;30.23;28.52;;;;;;;2.28;62.66;99161.66;5025013;28;20022;-73
2024/01/17 09:29:59;;;;;;;32.63;30.67;;;;;;;2.29;62.82;99160.59;5028372;28;20041;-75
2024/01/17 09:32:24;;;;;;;33.08;31.25;;;;;;;2.29;62.71;99156.13;5029355;28;20481;-72
2024/01/17 09:34:50;;;;;;;31.63;29.92;;;;;;;2.29;63.14;99157.94;5031484;28;20025;-73
2024/01/17 09:37:16;;;;;;;31.10;29.35;;;;;;;2.29;62.81;99155.28;5028893;28;20033;-71
2024/01/17 09:39:41;;;;;;;33.67;31.67;;;;;;;2.27;63.11;99147.53;5029128;28;20032;-78
2024/01/17 09:42:07;;;;;;;30.55;28.85;;;;;;;2.29;62.86;99149.94;5027338;28;20033;-72
2024/01/17 09:44:36;;;;;;;34.65;32.40;;;;;;;2.28;62.82;99138.47;4995086;28;20054;-72
2024/01/17 09:47:04;;;;;;;35.20;33.40;;;;;;;2.29;62.85;99144.63;5029093;28;20226;-74
2024/01/17 09:49:30;;;;;;;35.50;33.47;;;;;;;2.28;62.66;99140.34;5031025;28;20034;-74
2024/01/17 09:51:55;;;;;;;28.38;26.80;;;;;;;2.27;62.71;99139.53;5025380;28;20358;-73
2024/01/17 09:54:24;;;;;;;28.60;26.95;;;;;;;2.28;62.53;99143.00;5023743;28;20091;-72
2024/01/17 09:56:50;;;;;;;;;;;;;;;2.26;62.78;99137.91;5033555;28;20033;-73
2024/01/17 09:59:21;;;;;;;28.58;27.08;;;;;;;2.23;62.65;99130.38;5030439;28;19917;-74
2024/01/17 10:01:47;;;;;;;29.98;28.27;;;;;;;2.23;62.93;99132.22;5012288;28;20436;-74
2024/01/17 10:04:14;;;;;;;30.55;28.85;;;;;;;2.23;62.87;99134.88;5026317;28;20116;-74
2024/01/17 10:06:42;;;;;;;32.67;30.88;;;;;;;2.22;63.17;99133.25;5028470;28;20037;-73
2024/01/17 10:09:09;;;;;;;29.88;28.30;;;;;;;2.20;62.99;99122.84;5027492;28;20096;-78
2024/01/17 10:11:35;;;;;;;29.50;27.60;;;;;;;2.21;63.21;99136.97;5031965;28;20037;-73
2024/01/17 10:14:01;;;;;;;30.77;28.85;;;;;;;2.21;63.03;99127.09;5032117;28;20391;-73
2024/01/17 10:16:28;;;;;;;29.02;27.42;;;;;;;2.22;62.99;99123.41;5030682;28;20041;-75
2024/01/17 10:18:53;;;;;;;30.35;28.55;;;;;;;2.23;63.37;99110.91;5021310;28;20048;-74
2024/01/17 10:21:19;;;;;;;28.23;26.70;;;;;;;2.25;63.04;99112.31;5026496;28;20033;-74
2024/01/17 10:23:45;;;;;;;37.42;35.08;;;;;;;2.26;63.34;99119.25;5008601;28;20052;-73
2024/01/17 10:26:11;;;;;;;32.13;30.35;;;;;;;2.27;63.02;99112.06;5021773;28;20045;-74
2024/01/17 10:28:36;;;;;;;33.25;31.17;;;;;;;2.27;63.24;99115.56;5026477;28;20417;-73
2024/01/17 10:31:03;;;;;;;28.95;27.35;;;;;;;2.26;63.28;99103.25;5025456;28;20091;-72
2024/01/17 10:33:28;;;;;;;31.05;29.33;;;;;;;2.25;63.00;99109.63;5026807;28;20033;-77
2024/01/17 10:35:54;;;;;;;32.15;30.05;;;;;;;2.27;63.18;99093.41;5027458;28;20038;-73
2024/01/17 10:38:20;;;;;;;36.17;34.17;;;;;;;2.28;63.31;99097.72;5027173;28;20049;-74
2024/01/17 10:40:45;;;;;;;32.05;30.08;;;;;;;2.28;62.96;99092.38;5026665;28;20041;-73
2024/01/17 10:43:13;;;;;;;31.33;29.67;;;;;;;2.28;63.31;99085.19;5027218;28;20033;-75
2024/01/17 10:45:39;;;;;;;36.05;33.72;;;;;;;2.28;63.32;99085.19;5022176;28;20053;-72
2024/01/17 10:48:06;;;;;;;32.33;30.63;;;;;;;2.31;63.23;99086.59;5010204;28;20033;-73
2024/01/17 10:50:32;;;;;;;32.45;30.73;;;;;;;2.30;63.03;99083.13;5025638;28;20547;-75
2024/01/17 10:53:03;;;;;;;27.48;25.92;;;;;;;2.31;62.96;99081.25;5026467;28;20068;-73
2024/01/17 10:55:32;;;;;;;30.40;28.63;;;;;;;2.31;63.12;99070.59;5023502;28;20108;-72
2024/01/17 10:58:01;;;;;;;30.77;29.10;;;;;;;2.30;62.86;99069.81;5026790;28;20037;-76
2024/01/17 11:00:31;;;;;;;32.08;30.48;;;;;;;2.29;62.81;99060.19;5027051;28;20460;-76
2024/01/17 11:02:59;;;;;;;34.55;32.05;;;;;;;2.29;62.89;99065.53;5024303;28;20080;-72
2024/01/17 11:05:30;;;;;;;33.42;31.55;;;;;;;2.28;62.86;99063.88;5027109;28;20037;-72
2024/01/17 11:07:57;;;;;;;31.23;29.63;;;;;;;2.25;62.72;99051.03;5024180;28;20021;-73
2024/01/17 11:10:24;;;;;;;34.10;32.15;;;;;;;2.24;63.08;99045.91;5028164;28;20545;-72
2024/01/17 11:12:50;;;;;;;36.78;34.58;;;;;;;2.25;63.08;99036.91;5021719;28;20040;-73
2024/01/17 11:15:18;;;;;;;31.70;30.10;;;;;;;2.24;63.06;99049.38;5007146;28;20034;-71
2024/01/17 11:17:45;;;;;;;33.17;31.08;;;;;;;2.23;63.21;99045.13;5022487;28;20414;-74
2024/01/17 11:20:12;;;;;;;31.13;29.48;;;;;;;2.24;63.28;99037.94;5025582;28;20075;-73